createdAt,value
2023-05-04T00:02:15.380Z,9.00
2023-05-04T00:04:43.559Z,8.90
2023-05-04T00:07:11.715Z,8.90
2023-05-04T00:09:40.339Z,8.80
2023-05-04T00:12:10.088Z,8.60
2023-05-04T00:15:02.517Z,8.60
2023-05-04T00:18:01.469Z,8.40
2023-05-04T00:20:40.598Z,8.40
2023-05-04T00:23:18.131Z,8.40
2023-05-04T00:25:49.564Z,8.30
2023-05-04T00:28:39.060Z,8.30
2023-05-04T00:31:23.358Z,8.20
2023-05-04T00:33:57.794Z,8.20
2023-05-04T00:36:34.175Z,8.10
2023-05-04T00:39:16.526Z,8.20
2023-05-04T00:41:49.922Z,8.20
2023-05-04T00:44:32.103Z,8.20
2023-05-04T00:47:20.392Z,8.20
2023-05-04T00:50:05.045Z,8.20
2023-05-04T00:52:46.188Z,8.20
2023-05-04T00:55:33.832Z,8.20
2023-05-04T00:58:09.228Z,8.20
2023-05-04T01:00:44.318Z,8.10
2023-05-04T01:03:23.575Z,8.10
2023-05-04T01:06:27.327Z,8.10
2023-05-04T01:09:10.381Z,8.10
2023-05-04T01:11:54.518Z,8.00
2023-05-04T01:14:42.036Z,7.90
2023-05-04T01:17:16.536Z,7.90
2023-05-04T01:19:55.979Z,7.90
2023-05-04T01:22:33.393Z,7.80
2023-05-04T01:25:08.412Z,7.80
2023-05-04T01:27:43.827Z,7.70
2023-05-04T01:30:18.983Z,7.70
2023-05-04T01:32:48.549Z,7.70
2023-05-04T01:35:17.128Z,7.60
2023-05-04T01:37:47.285Z,7.70
2023-05-04T01:40:15.733Z,7.60
2023-05-04T01:42:43.776Z,7.50
2023-05-04T01:45:12.742Z,7.40
2023-05-04T01:47:40.940Z,7.40
2023-05-04T01:50:10.018Z,7.30
2023-05-04T01:52:38.100Z,7.30
2023-05-04T01:55:08.001Z,7.30
2023-05-04T01:57:36.127Z,7.20
2023-05-04T02:00:04.637Z,7.10
2023-05-04T02:02:32.941Z,7.20
2023-05-04T02:05:01.001Z,7.10
2023-05-04T02:07:29.056Z,7.10
2023-05-04T02:09:57.098Z,7.10
2023-05-04T02:12:26.516Z,7.20
2023-05-04T02:14:54.550Z,7.10
2023-05-04T02:17:22.586Z,7.10
2023-05-04T02:19:50.584Z,7.10
2023-05-04T02:22:18.777Z,7.10
2023-05-04T02:24:46.773Z,7.00
2023-05-04T02:27:14.804Z,7.10
2023-05-04T02:29:44.180Z,7.00
2023-05-04T02:32:12.157Z,6.90
2023-05-04T02:34:40.142Z,6.80
2023-05-04T02:37:09.302Z,6.80
2023-05-04T02:39:37.346Z,6.80
2023-05-04T02:42:06.440Z,6.70
2023-05-04T02:44:34.466Z,6.70
2023-05-04T02:47:05.876Z,6.70
2023-05-04T02:49:33.908Z,6.60
2023-05-04T02:52:01.846Z,6.60
2023-05-04T02:54:30.978Z,6.60
2023-05-04T02:56:59.018Z,6.60
2023-05-04T02:59:27.079Z,6.50
2023-05-04T03:01:55.307Z,6.50
2023-05-04T03:04:31.883Z,6.50
2023-05-04T03:06:59.870Z,6.50
2023-05-04T03:09:27.916Z,6.50
2023-05-04T03:11:56.195Z,6.40
2023-05-04T03:14:24.193Z,6.50
2023-05-04T03:16:52.272Z,6.50
2023-05-04T03:19:34.151Z,6.50
2023-05-04T03:22:02.196Z,6.50
2023-05-04T03:24:30.366Z,6.50
2023-05-04T03:26:58.428Z,6.50
2023-05-04T03:29:26.492Z,6.40
2023-05-04T03:31:56.602Z,6.50
2023-05-04T03:34:24.590Z,6.50
2023-05-04T03:36:54.199Z,6.50
2023-05-04T03:39:22.230Z,6.50
2023-05-04T03:41:52.192Z,6.50
2023-05-04T03:44:20.205Z,6.50
2023-05-04T03:47:01.341Z,6.50
2023-05-04T03:49:29.319Z,6.40
2023-05-04T03:51:58.630Z,6.40
2023-05-04T03:54:27.496Z,6.40
2023-05-04T03:56:55.498Z,6.30
2023-05-04T03:59:23.548Z,6.30
2023-05-04T04:01:54.207Z,6.30
2023-05-04T04:04:22.215Z,6.40
2023-05-04T04:06:50.229Z,6.30
2023-05-04T04:09:19.869Z,6.30
2023-05-04T04:11:47.852Z,6.40
2023-05-04T04:14:15.876Z,6.30
2023-05-04T04:16:43.940Z,6.40
2023-05-04T04:19:12.213Z,6.40
2023-05-04T04:21:40.310Z,6.30
2023-05-04T04:24:08.356Z,6.40
2023-05-04T04:26:37.976Z,6.30
2023-05-04T04:29:06.015Z,6.40
2023-05-04T04:31:34.222Z,6.40
2023-05-04T04:34:02.246Z,6.40
2023-05-04T04:36:36.334Z,6.30
2023-05-04T04:39:05.877Z,6.40
2023-05-04T04:41:34.170Z,6.40
2023-05-04T04:44:10.632Z,6.50
2023-05-04T04:46:38.853Z,6.70
2023-05-04T04:49:14.105Z,6.80
2023-05-04T04:51:42.142Z,6.90
2023-05-04T04:54:10.146Z,7.10
2023-05-04T04:56:41.483Z,7.40
2023-05-04T04:59:11.169Z,7.70
2023-05-04T05:01:45.342Z,8.00
2023-05-04T05:04:13.402Z,8.30
2023-05-04T05:06:41.853Z,8.50
2023-05-04T05:09:10.947Z,8.80
2023-05-04T05:11:42.028Z,9.00
2023-05-04T05:14:11.380Z,9.30
2023-05-04T05:16:39.417Z,9.50
2023-05-04T05:19:13.464Z,9.60
2023-05-04T05:21:41.410Z,9.80
2023-05-04T05:24:09.424Z,10.20
2023-05-04T05:26:43.378Z,10.30
2023-05-04T05:29:12.801Z,10.80
2023-05-04T05:31:41.101Z,11.40
2023-05-04T05:34:09.253Z,11.30
2023-05-04T05:36:37.193Z,11.50
2023-05-04T05:39:05.330Z,11.40
2023-05-04T05:41:34.396Z,11.40
2023-05-04T05:44:02.832Z,11.50
2023-05-04T05:46:32.230Z,11.50
2023-05-04T05:49:00.442Z,11.80
2023-05-04T05:51:28.418Z,12.20
2023-05-04T05:53:56.377Z,12.20
2023-05-04T05:56:24.454Z,12.10
2023-05-04T05:58:52.878Z,12.10
2023-05-04T06:01:20.942Z,12.10
2023-05-04T06:03:50.492Z,12.20
2023-05-04T06:06:18.989Z,12.20
2023-05-04T06:08:47.200Z,12.30
2023-05-04T06:11:15.363Z,12.30
2023-05-04T06:13:43.381Z,12.50
2023-05-04T06:16:11.432Z,12.70
2023-05-04T06:18:39.469Z,12.90
2023-05-04T06:21:08.832Z,12.90
2023-05-04T06:23:37.155Z,13.20
2023-05-04T06:26:07.814Z,13.20
2023-05-04T06:28:36.535Z,13.20
2023-05-04T06:31:06.658Z,13.30
2023-05-04T06:33:34.741Z,13.20
2023-05-04T06:36:03.624Z,13.20
2023-05-04T06:38:33.997Z,13.50
2023-05-04T06:41:06.872Z,13.60
2023-05-04T06:43:35.268Z,13.70
2023-05-04T06:46:04.030Z,13.90
2023-05-04T06:48:32.843Z,14.00
2023-05-04T06:51:02.287Z,14.10
2023-05-04T06:53:32.857Z,14.40
2023-05-04T06:56:02.678Z,14.20
2023-05-04T06:58:36.672Z,14.30
2023-05-04T07:01:04.737Z,14.30
2023-05-04T07:03:32.810Z,14.60
2023-05-04T07:06:00.884Z,14.70
2023-05-04T07:08:28.875Z,14.80
2023-05-04T07:10:58.294Z,14.70
2023-05-04T07:13:26.331Z,14.90
2023-05-04T07:15:54.378Z,14.70
2023-05-04T07:18:22.819Z,14.90
2023-05-04T07:20:51.355Z,15.00
2023-05-04T07:23:20.978Z,15.40
2023-05-04T07:25:48.990Z,15.50
2023-05-04T07:28:18.353Z,16.00
2023-05-04T07:30:46.426Z,16.30
2023-05-04T07:33:15.083Z,15.90
2023-05-04T07:35:43.050Z,16.10
2023-05-04T07:38:11.713Z,16.20
2023-05-04T07:40:39.801Z,15.90
2023-05-04T07:43:07.830Z,16.10
2023-05-04T07:45:37.200Z,16.00
2023-05-04T07:48:05.495Z,16.20
2023-05-04T07:50:35.096Z,16.50
2023-05-04T07:53:03.824Z,16.90
2023-05-04T07:55:31.814Z,16.70
2023-05-04T07:57:59.813Z,16.60
2023-05-04T08:00:28.260Z,16.90
2023-05-04T08:02:58.222Z,16.90
2023-05-04T08:05:26.200Z,16.80
2023-05-04T08:07:54.213Z,16.70
2023-05-04T08:10:22.235Z,17.10
2023-05-04T08:12:50.312Z,17.40
2023-05-04T08:15:18.849Z,17.40
2023-05-04T08:17:46.937Z,17.60
2023-05-04T08:20:18.489Z,18.10
2023-05-04T08:22:46.870Z,18.10
2023-05-04T08:25:15.042Z,17.50
2023-05-04T08:27:43.024Z,17.60
2023-05-04T08:30:22.682Z,17.80
2023-05-04T08:32:51.299Z,18.10
2023-05-04T08:35:25.866Z,18.30
2023-05-04T08:37:53.848Z,18.90
2023-05-04T08:40:25.057Z,19.10
2023-05-04T08:42:53.879Z,19.10
2023-05-04T08:45:23.144Z,19.00
2023-05-04T08:47:51.820Z,19.10
2023-05-04T08:50:20.029Z,19.60
2023-05-04T08:52:49.985Z,19.80
2023-05-04T08:55:19.567Z,19.40
2023-05-04T08:57:50.063Z,19.50
2023-05-04T09:00:20.877Z,20.00
2023-05-04T09:03:05.079Z,19.80
2023-05-04T09:05:33.640Z,19.20
2023-05-04T09:08:03.023Z,19.70
2023-05-04T09:10:32.017Z,19.60
2023-05-04T09:13:00.063Z,19.60
2023-05-04T09:15:28.088Z,20.00
2023-05-04T09:18:03.397Z,20.50
2023-05-04T09:20:31.953Z,20.80
2023-05-04T09:23:13.210Z,20.80
2023-05-04T09:25:48.863Z,20.80
2023-05-04T09:28:18.215Z,20.70
2023-05-04T09:31:05.336Z,20.80
2023-05-04T09:33:35.820Z,20.90
2023-05-04T09:36:15.818Z,20.60
2023-05-04T09:39:13.782Z,21.30
2023-05-04T09:41:42.704Z,20.90
2023-05-04T09:44:22.377Z,20.50
2023-05-04T09:46:55.409Z,20.90
2023-05-04T09:49:34.550Z,21.20
2023-05-04T09:52:03.666Z,21.00
2023-05-04T09:54:37.840Z,20.60
2023-05-04T09:57:15.191Z,20.80
2023-05-04T09:59:43.833Z,20.20
2023-05-04T10:02:22.644Z,21.10
2023-05-04T10:04:52.721Z,20.70
2023-05-04T10:07:21.187Z,21.00
2023-05-04T10:09:52.527Z,21.70
2023-05-04T10:12:20.689Z,21.50
2023-05-04T10:14:48.761Z,21.40
2023-05-04T10:17:40.692Z,21.20
2023-05-04T10:20:31.389Z,21.80
2023-05-04T10:23:15.037Z,21.80
2023-05-04T10:26:05.962Z,22.10
2023-05-04T10:28:45.326Z,22.60
2023-05-04T10:31:13.628Z,21.80
2023-05-04T10:33:42.639Z,21.90
2023-05-04T10:36:11.700Z,22.00
2023-05-04T10:38:41.386Z,22.50
2023-05-04T10:41:18.035Z,22.40
2023-05-04T10:43:48.968Z,22.50
2023-05-04T10:46:18.585Z,22.40
2023-05-04T10:48:46.676Z,22.70
2023-05-04T10:51:21.268Z,23.20
2023-05-04T10:53:49.419Z,23.30
2023-05-04T10:56:26.350Z,23.20
2023-05-04T10:58:54.830Z,23.20
2023-05-04T11:01:24.364Z,23.80
2023-05-04T11:03:53.667Z,23.40
2023-05-04T11:06:24.463Z,23.50
2023-05-04T11:09:00.884Z,23.60
2023-05-04T11:11:30.558Z,23.40
2023-05-04T11:13:58.717Z,23.60
2023-05-04T11:16:28.447Z,23.10
2023-05-04T11:18:56.508Z,23.40
2023-05-04T11:21:26.092Z,23.40
2023-05-04T11:23:57.370Z,22.80
2023-05-04T11:26:25.846Z,22.90
2023-05-04T11:29:14.615Z,23.60
2023-05-04T11:31:44.360Z,23.80
2023-05-04T11:34:20.949Z,23.50
2023-05-04T11:36:49.924Z,23.80
2023-05-04T11:39:18.351Z,23.30
2023-05-04T11:41:46.354Z,23.80
2023-05-04T11:44:17.942Z,24.10
2023-05-04T11:46:47.881Z,24.70
2023-05-04T11:49:16.098Z,24.30
2023-05-04T11:51:44.110Z,23.70
2023-05-04T11:54:21.674Z,23.60
2023-05-04T11:56:49.685Z,23.50
2023-05-04T11:59:19.010Z,24.30
2023-05-04T12:01:49.431Z,24.00
2023-05-04T12:04:17.491Z,24.20
2023-05-04T12:06:46.392Z,23.90
2023-05-04T12:09:14.415Z,24.00
2023-05-04T12:11:42.914Z,24.50
2023-05-04T12:14:13.773Z,24.60
2023-05-04T12:16:54.397Z,24.80
2023-05-04T12:19:22.597Z,25.00
2023-05-04T12:21:53.010Z,25.40
2023-05-04T12:24:23.548Z,25.40
2023-05-04T12:26:51.820Z,25.60
2023-05-04T12:29:19.906Z,25.60
2023-05-04T12:31:49.616Z,25.80
2023-05-04T12:34:17.841Z,25.20
2023-05-04T12:36:46.305Z,25.20
2023-05-04T12:39:14.687Z,25.40
2023-05-04T12:41:43.070Z,26.00
2023-05-04T12:44:11.561Z,26.10
2023-05-04T12:46:39.709Z,26.20
2023-05-04T12:49:15.942Z,26.00
2023-05-04T12:51:44.247Z,25.80
2023-05-04T12:54:12.237Z,25.90
2023-05-04T12:56:40.553Z,25.90
2023-05-04T12:59:08.586Z,26.00
2023-05-04T13:01:36.810Z,25.30
2023-05-04T13:04:04.869Z,25.70
2023-05-04T13:06:34.248Z,26.40
2023-05-04T13:09:05.712Z,26.40
2023-05-04T13:11:33.753Z,26.60
2023-05-04T13:14:01.844Z,26.70
2023-05-04T13:16:30.764Z,26.60
2023-05-04T13:18:59.205Z,26.50
2023-05-04T13:21:27.240Z,26.80
2023-05-04T13:23:57.559Z,27.40
2023-05-04T13:26:25.588Z,27.80
2023-05-04T13:28:53.575Z,28.20
2023-05-04T13:31:22.243Z,27.60
2023-05-04T13:33:58.093Z,27.20
2023-05-04T13:36:26.141Z,27.50
2023-05-04T13:38:57.943Z,26.80
2023-05-04T13:41:26.268Z,26.50
2023-05-04T13:43:54.638Z,26.70
2023-05-04T13:46:23.885Z,26.30
2023-05-04T13:48:52.130Z,27.30
2023-05-04T13:51:20.114Z,27.30
2023-05-04T13:53:50.101Z,27.60
2023-05-04T13:56:19.468Z,27.70
2023-05-04T13:58:47.418Z,27.70
2023-05-04T14:01:15.990Z,27.40
2023-05-04T14:03:44.065Z,27.50
2023-05-04T14:06:12.338Z,27.60
2023-05-04T14:08:40.329Z,26.90
2023-05-04T14:11:08.359Z,27.30
2023-05-04T14:13:37.710Z,27.60
2023-05-04T14:16:06.144Z,27.70
2023-05-04T14:18:34.200Z,27.40
2023-05-04T14:21:02.182Z,27.60
2023-05-04T14:23:30.242Z,28.30
2023-05-04T14:25:58.214Z,28.40
2023-05-04T14:28:26.807Z,27.90
2023-05-04T14:30:56.242Z,27.20
2023-05-04T14:33:24.389Z,26.90
2023-05-04T14:35:52.511Z,26.90
2023-05-04T14:38:22.589Z,27.50
2023-05-04T14:40:52.931Z,27.30
2023-05-04T14:43:26.852Z,27.40
2023-05-04T14:45:57.448Z,27.80
2023-05-04T14:48:27.513Z,27.50
2023-05-04T14:50:56.001Z,27.20
2023-05-04T14:53:24.561Z,27.30
2023-05-04T14:55:52.689Z,27.20
2023-05-04T14:58:20.706Z,26.70
2023-05-04T15:00:48.738Z,27.10
2023-05-04T15:03:18.438Z,27.10
2023-05-04T15:05:46.779Z,27.00
2023-05-04T15:08:14.766Z,27.00
2023-05-04T15:10:42.802Z,26.90
2023-05-04T15:13:12.266Z,26.90
2023-05-04T15:15:40.818Z,26.90
2023-05-04T15:18:09.195Z,26.70
2023-05-04T15:20:39.375Z,26.90
2023-05-04T15:23:14.368Z,26.90
2023-05-04T15:25:42.757Z,26.20
2023-05-04T15:28:13.671Z,25.70
2023-05-04T15:30:43.061Z,25.90
2023-05-04T15:33:11.306Z,25.90
2023-05-04T15:35:40.816Z,26.20
2023-05-04T15:38:08.895Z,26.50
2023-05-04T15:40:37.057Z,26.80
2023-05-04T15:43:05.095Z,26.20
2023-05-04T15:45:33.097Z,26.10
2023-05-04T15:48:01.161Z,25.90
2023-05-04T15:50:30.440Z,25.90
2023-05-04T15:53:00.765Z,25.40
2023-05-04T15:55:28.854Z,25.40
2023-05-04T15:57:56.868Z,25.20
2023-05-04T16:00:26.125Z,24.90
2023-05-04T16:03:00.681Z,25.00
2023-05-04T16:05:28.751Z,24.90
2023-05-04T16:07:57.063Z,25.00
2023-05-04T16:10:26.419Z,24.90
2023-05-04T16:12:54.437Z,25.10
2023-05-04T16:15:22.516Z,25.20
2023-05-04T16:17:50.499Z,25.40
2023-05-04T16:20:25.770Z,25.70
2023-05-04T16:22:53.761Z,25.30
2023-05-04T16:25:21.772Z,25.40
2023-05-04T16:27:52.269Z,25.00
2023-05-04T16:30:21.604Z,25.10
2023-05-04T16:32:49.618Z,24.80
2023-05-04T16:35:17.703Z,24.90
2023-05-04T16:37:45.726Z,25.20
2023-05-04T16:40:15.490Z,24.80
2023-05-04T16:42:43.680Z,24.50
2023-05-04T16:45:14.579Z,24.20
2023-05-04T16:47:43.274Z,24.10
2023-05-04T16:50:12.745Z,23.70
2023-05-04T16:52:41.364Z,23.60
2023-05-04T16:55:12.388Z,23.80
2023-05-04T16:57:40.841Z,23.90
2023-05-04T17:00:10.565Z,23.80
2023-05-04T17:02:40.294Z,23.60
2023-05-04T17:05:10.391Z,23.30
2023-05-04T17:07:40.109Z,22.90
2023-05-04T17:10:09.406Z,22.60
2023-05-04T17:12:37.475Z,22.50
2023-05-04T17:15:06.616Z,22.40
2023-05-04T17:17:35.698Z,22.40
2023-05-04T17:20:06.284Z,22.20
2023-05-04T17:22:34.558Z,22.10
2023-05-04T17:25:02.772Z,22.10
2023-05-04T17:27:30.783Z,22.00
2023-05-04T17:30:01.842Z,22.00
2023-05-04T17:32:30.763Z,22.00
2023-05-04T17:35:03.405Z,21.90
2023-05-04T17:37:41.478Z,21.90
2023-05-04T17:40:10.597Z,21.80
2023-05-04T17:42:38.615Z,21.70
2023-05-04T17:45:08.464Z,21.60
2023-05-04T17:47:36.910Z,21.50
2023-05-04T17:50:05.840Z,21.40
2023-05-04T17:52:34.039Z,21.30
2023-05-04T17:55:03.415Z,21.20
2023-05-04T17:57:31.553Z,21.00
2023-05-04T17:59:59.721Z,20.90
2023-05-04T18:02:35.751Z,20.60
2023-05-04T18:05:03.792Z,20.50
2023-05-04T18:07:31.794Z,20.40
2023-05-04T18:09:59.834Z,20.30
2023-05-04T18:12:29.235Z,20.20
2023-05-04T18:14:57.281Z,20.10
2023-05-04T18:17:26.421Z,19.90
2023-05-04T18:19:54.613Z,19.70
2023-05-04T18:22:22.637Z,19.40
2023-05-04T18:24:50.588Z,19.30
2023-05-04T18:27:19.682Z,19.20
2023-05-04T18:29:49.549Z,19.10
2023-05-04T18:32:17.670Z,18.90
2023-05-04T18:34:47.823Z,18.70
2023-05-04T18:37:16.307Z,18.50
2023-05-04T18:39:44.291Z,18.40
2023-05-04T18:42:12.273Z,18.20
2023-05-04T18:44:41.441Z,18.10
2023-05-04T18:47:19.985Z,17.90
2023-05-04T18:49:51.027Z,17.70
2023-05-04T18:52:19.301Z,17.40
2023-05-04T18:54:49.488Z,17.20
2023-05-04T18:57:17.919Z,17.10
2023-05-04T18:59:47.780Z,17.00
2023-05-04T19:02:23.141Z,17.00
2023-05-04T19:04:52.206Z,16.80
2023-05-04T19:07:20.236Z,16.80
2023-05-04T19:09:56.450Z,16.60
2023-05-04T19:12:24.758Z,16.40
2023-05-04T19:14:52.864Z,16.30
2023-05-04T19:17:22.748Z,16.30
2023-05-04T19:19:50.819Z,16.20
2023-05-04T19:22:18.973Z,16.10
2023-05-04T19:24:51.393Z,16.00
2023-05-04T19:27:19.427Z,15.80
2023-05-04T19:29:47.998Z,15.60
2023-05-04T19:32:24.510Z,15.60
2023-05-04T19:34:55.877Z,15.50
2023-05-04T19:37:23.915Z,15.40
2023-05-04T19:39:51.980Z,15.30
2023-05-04T19:42:20.097Z,15.20
2023-05-04T19:44:48.343Z,15.10
2023-05-04T19:47:32.343Z,15.00
2023-05-04T19:50:01.848Z,15.00
2023-05-04T19:52:34.754Z,14.90
2023-05-04T19:55:03.062Z,14.90
2023-05-04T19:57:31.124Z,14.80
2023-05-04T20:00:00.819Z,14.70
2023-05-04T20:02:31.144Z,14.70
2023-05-04T20:04:59.273Z,14.70
2023-05-04T20:07:28.939Z,14.70
2023-05-04T20:09:57.532Z,14.60
2023-05-04T20:12:26.432Z,14.60
2023-05-04T20:14:54.795Z,14.50
2023-05-04T20:17:23.462Z,14.40
2023-05-04T20:19:51.767Z,14.30
2023-05-04T20:22:20.426Z,14.30
2023-05-04T20:24:50.393Z,14.20
2023-05-04T20:27:18.682Z,14.20
2023-05-04T20:29:46.846Z,14.10
2023-05-04T20:32:22.532Z,14.10
2023-05-04T20:34:50.644Z,14.00
2023-05-04T20:37:18.958Z,13.90
2023-05-04T20:39:47.240Z,13.80
2023-05-04T20:42:18.689Z,13.80
2023-05-04T20:44:47.089Z,13.80
2023-05-04T20:47:15.240Z,13.70
2023-05-04T20:49:43.453Z,13.70
2023-05-04T20:52:11.869Z,13.60
2023-05-04T20:54:40.460Z,13.60
2023-05-04T20:57:08.878Z,13.60
2023-05-04T20:59:38.301Z,13.50
2023-05-04T21:02:06.452Z,13.40
2023-05-04T21:04:34.507Z,13.30
2023-05-04T21:07:02.643Z,13.30
2023-05-04T21:09:30.981Z,13.20
2023-05-04T21:11:59.425Z,13.20
2023-05-04T21:14:29.454Z,13.10
2023-05-04T21:16:58.840Z,13.10
2023-05-04T21:19:26.967Z,13.10
2023-05-04T21:21:56.248Z,13.10
2023-05-04T21:24:24.236Z,13.10
2023-05-04T21:26:52.347Z,13.00
2023-05-04T21:29:20.329Z,13.10
2023-05-04T21:31:49.793Z,13.10
2023-05-04T21:34:19.568Z,13.00
2023-05-04T21:36:47.585Z,13.00
2023-05-04T21:39:16.746Z,13.10
2023-05-04T21:41:44.759Z,13.00
2023-05-04T21:44:12.819Z,13.00
2023-05-04T21:46:40.861Z,13.00
2023-05-04T21:49:08.937Z,13.00
2023-05-04T21:51:42.093Z,12.90
2023-05-04T21:54:11.263Z,12.90
2023-05-04T21:56:41.686Z,12.80
2023-05-04T21:59:11.951Z,12.80
2023-05-04T22:01:42.395Z,12.80
2023-05-04T22:04:17.331Z,12.80
2023-05-04T22:06:47.461Z,12.80
2023-05-04T22:09:19.604Z,12.80
2023-05-04T22:11:54.739Z,12.80
2023-05-04T22:14:25.676Z,12.80
2023-05-04T22:16:53.909Z,12.70
2023-05-04T22:19:27.941Z,12.70
2023-05-04T22:21:57.339Z,12.70
2023-05-04T22:24:26.423Z,12.60
2023-05-04T22:26:54.463Z,12.60
2023-05-04T22:29:34.532Z,12.60
2023-05-04T22:32:02.632Z,12.60
2023-05-04T22:34:30.651Z,12.60
2023-05-04T22:37:10.194Z,12.50
2023-05-04T22:40:06.095Z,12.40
2023-05-04T22:42:34.333Z,12.40
2023-05-04T22:45:02.344Z,12.40
2023-05-04T22:47:40.738Z,12.40
2023-05-04T22:50:10.402Z,12.40
2023-05-04T22:52:40.119Z,12.30
2023-05-04T22:55:09.400Z,12.30
2023-05-04T22:57:37.868Z,12.30
2023-05-04T23:00:08.406Z,12.20
2023-05-04T23:02:40.133Z,12.20
2023-05-04T23:05:10.618Z,12.20
2023-05-04T23:07:40.130Z,12.20
2023-05-04T23:10:09.266Z,12.10
2023-05-04T23:12:44.018Z,12.00
2023-05-04T23:15:28.639Z,12.00
2023-05-04T23:17:56.805Z,11.90
2023-05-04T23:20:24.968Z,11.90
2023-05-04T23:22:55.357Z,11.90
2023-05-04T23:25:23.350Z,11.90
2023-05-04T23:27:51.381Z,11.90
2023-05-04T23:30:19.512Z,11.90
2023-05-04T23:32:47.657Z,11.90
2023-05-04T23:35:15.758Z,11.80
2023-05-04T23:37:43.739Z,11.80
2023-05-04T23:40:13.616Z,11.90
2023-05-04T23:42:41.629Z,11.90
2023-05-04T23:45:11.628Z,11.80
2023-05-04T23:47:39.667Z,11.90
2023-05-04T23:50:10.035Z,11.90
2023-05-04T23:52:50.782Z,11.90
2023-05-04T23:55:22.584Z,12.00
2023-05-04T23:57:51.883Z,12.00
